TimeCDT,TemperatureF,Dew PointF,Humidity,Sea Level PressureIn,VisibilityMPH,Wind Direction,Wind SpeedMPH,Gust SpeedMPH,PrecipitationIn,Events,Conditions,WindDirDegrees,DateUTC
12:53 AM,30.0,21.0,69,30.28,10.0,South,6.9,-,N/A,,Mostly Cloudy,170,2013-04-02 05:53:00
1:53 AM,30.0,21.0,69,30.28,10.0,South,5.8,-,N/A,,Overcast,170,2013-04-02 06:53:00
2:53 AM,32.0,21.0,64,30.27,10.0,South,4.6,-,N/A,,Overcast,170,2013-04-02 07:53:00
3:53 AM,33.1,21.0,61,30.25,10.0,South,6.9,-,N/A,,Overcast,180,2013-04-02 08:53:00
4:53 AM,32.0,19.9,61,30.24,10.0,South,6.9,-,N/A,,Overcast,190,2013-04-02 09:53:00
5:53 AM,28.0,19.0,69,30.24,10.0,South,9.2,-,N/A,,Clear,170,2013-04-02 10:53:00
6:53 AM,26.1,19.0,75,30.25,10.0,SSE,4.6,-,N/A,,Clear,150,2013-04-02 11:53:00
7:53 AM,26.1,19.0,75,30.25,10.0,SE,5.8,-,N/A,,Clear,130,2013-04-02 12:53:00
8:53 AM,34.0,23.0,64,30.25,10.0,ESE,6.9,-,N/A,,Clear,120,2013-04-02 13:53:00
9:53 AM,41.0,25.0,53,30.24,10.0,ESE,6.9,-,N/A,,Clear,110,2013-04-02 14:53:00
10:53 AM,45.0,26.1,48,30.24,10.0,ESE,6.9,-,N/A,,Clear,110,2013-04-02 15:53:00
11:53 AM,50.0,23.0,35,30.22,10.0,East,12.7,21.9,N/A,,Clear,80,2013-04-02 16:53:00
12:53 PM,51.1,21.9,32,30.22,10.0,East,15.0,-,N/A,,Clear,80,2013-04-02 17:53:00
1:53 PM,53.1,21.9,30,30.21,10.0,East,11.5,21.9,N/A,,Clear,80,2013-04-02 18:53:00
2:53 PM,55.0,23.0,29,30.20,10.0,East,13.8,25.3,N/A,,Clear,80,2013-04-02 19:53:00
3:53 PM,55.9,23.0,28,30.19,10.0,ENE,10.4,17.3,N/A,,Clear,70,2013-04-02 20:53:00
4:53 PM,55.0,21.9,28,30.18,10.0,ENE,11.5,18.4,N/A,,Clear,70,2013-04-02 21:53:00
5:53 PM,54.0,21.9,29,30.19,10.0,ENE,11.5,-,N/A,,Clear,70,2013-04-02 22:53:00
6:53 PM,52.0,21.9,31,30.19,10.0,East,15.0,-,N/A,,Clear,80,2013-04-02 23:53:00
7:53 PM,46.9,21.9,37,30.21,10.0,East,13.8,-,N/A,,Clear,80,2013-04-03 00:53:00
8:53 PM,42.1,21.9,45,30.21,10.0,East,12.7,-,N/A,,Clear,90,2013-04-03 01:53:00
9:53 PM,36.0,21.0,55,30.22,10.0,ESE,10.4,-,N/A,,Clear,120,2013-04-03 02:53:00
10:53 PM,34.0,21.0,59,30.22,10.0,ESE,10.4,-,N/A,,Clear,120,2013-04-03 03:53:00
11:53 PM,35.1,21.9,59,30.21,10.0,ESE,11.5,-,N/A,,Clear,120,2013-04-03 04:53:00